createdAt,value
2019-01-20T00:02:18.130Z,88.52
2019-01-20T00:04:44.905Z,88.89
2019-01-20T00:07:11.694Z,88.70
2019-01-20T00:09:38.523Z,89.02
2019-01-20T00:12:05.278Z,88.40
2019-01-20T00:14:32.065Z,88.96
2019-01-20T00:16:58.828Z,89.28
2019-01-20T00:19:25.617Z,88.63
2019-01-20T00:21:52.393Z,89.15
2019-01-20T00:24:19.176Z,89.65
2019-01-20T00:26:45.945Z,88.64
2019-01-20T00:29:12.741Z,89.07
2019-01-20T00:31:39.492Z,89.11
2019-01-20T00:34:06.282Z,88.78
2019-01-20T00:36:33.029Z,89.57
2019-01-20T00:38:59.800Z,89.40
2019-01-20T00:41:26.597Z,89.06
2019-01-20T00:43:53.337Z,88.92
2019-01-20T00:46:20.173Z,88.95
2019-01-20T00:48:46.953Z,88.82
2019-01-20T00:51:13.745Z,89.36
2019-01-20T00:53:40.505Z,89.04
2019-01-20T00:56:07.281Z,89.34
2019-01-20T00:58:34.037Z,88.80
2019-01-20T01:01:00.815Z,88.95
2019-01-20T01:03:27.564Z,88.97
2019-01-20T01:05:54.337Z,88.39
2019-01-20T01:08:21.093Z,88.41
2019-01-20T01:10:47.888Z,88.93
2019-01-20T01:13:14.657Z,88.90
2019-01-20T01:15:41.437Z,88.53
2019-01-20T01:18:08.197Z,88.46
2019-01-20T01:20:34.984Z,88.57
2019-01-20T01:23:01.738Z,88.01
2019-01-20T01:25:29.515Z,88.03
2019-01-20T01:27:56.343Z,87.91
2019-01-20T01:30:24.031Z,87.46
2019-01-20T01:32:50.801Z,87.94
2019-01-20T01:35:17.745Z,87.15
2019-01-20T01:37:44.496Z,86.76
2019-01-20T01:40:11.725Z,86.89
2019-01-20T01:42:38.486Z,87.27
2019-01-20T01:45:07.469Z,86.55
2019-01-20T01:47:34.233Z,86.51
2019-01-20T01:50:01.052Z,86.89
2019-01-20T01:52:27.829Z,86.90
2019-01-20T01:54:54.593Z,86.84
2019-01-20T01:57:21.357Z,87.05
2019-01-20T01:59:48.109Z,87.26
2019-01-20T02:02:14.909Z,88.02
2019-01-20T02:04:41.657Z,87.70
2019-01-20T02:07:08.436Z,86.58
2019-01-20T02:09:35.182Z,86.84
2019-01-20T02:12:01.972Z,87.35
2019-01-20T02:14:28.724Z,86.79
2019-01-20T02:16:55.505Z,87.37
2019-01-20T02:19:22.266Z,86.83
2019-01-20T02:21:49.050Z,86.45
2019-01-20T02:24:15.828Z,87.13
2019-01-20T02:26:42.598Z,86.82
2019-01-20T02:29:09.353Z,87.08
2019-01-20T02:31:36.132Z,86.67
2019-01-20T02:34:02.896Z,87.25
2019-01-20T02:36:29.673Z,86.78
2019-01-20T02:38:56.433Z,87.36
2019-01-20T02:41:23.238Z,87.19
2019-01-20T02:43:49.993Z,87.85
2019-01-20T02:46:16.763Z,86.92
2019-01-20T02:48:43.508Z,87.12
2019-01-20T02:51:10.300Z,88.34
2019-01-20T02:53:37.045Z,87.74
2019-01-20T02:56:03.811Z,87.08
2019-01-20T02:58:30.589Z,87.07
2019-01-20T03:00:57.543Z,86.67
2019-01-20T03:03:24.381Z,86.63
2019-01-20T03:05:51.197Z,87.36
2019-01-20T03:08:17.959Z,87.49
2019-01-20T03:10:44.765Z,86.59
2019-01-20T03:13:11.549Z,87.15
2019-01-20T03:15:38.304Z,86.76
2019-01-20T03:18:05.101Z,86.32
2019-01-20T03:20:31.857Z,86.51
2019-01-20T03:22:58.652Z,85.88
2019-01-20T03:25:25.418Z,85.69
2019-01-20T03:27:52.196Z,86.76
2019-01-20T03:30:20.663Z,87.56
2019-01-20T03:32:47.430Z,86.53
2019-01-20T03:35:14.685Z,86.40
2019-01-20T03:37:41.462Z,87.42
2019-01-20T03:40:10.001Z,86.76
2019-01-20T03:42:36.766Z,86.20
2019-01-20T03:45:04.438Z,86.36
2019-01-20T03:47:31.213Z,87.54
2019-01-20T03:49:57.957Z,87.18
2019-01-20T03:52:24.744Z,87.39
2019-01-20T03:54:51.473Z,87.92
2019-01-20T03:57:18.238Z,87.54
2019-01-20T03:59:44.988Z,87.48
2019-01-20T04:02:11.739Z,87.43
2019-01-20T04:04:38.500Z,87.18
2019-01-20T04:07:05.279Z,88.25
2019-01-20T04:09:32.009Z,87.28
2019-01-20T04:11:58.741Z,87.55
2019-01-20T04:14:25.535Z,87.14
2019-01-20T04:16:52.237Z,85.96
2019-01-20T04:19:19.135Z,85.82
2019-01-20T04:21:45.882Z,86.48
2019-01-20T04:24:12.635Z,86.31
2019-01-20T04:26:39.376Z,85.36
2019-01-20T04:29:06.143Z,86.25
2019-01-20T04:31:33.004Z,86.30
2019-01-20T04:33:59.747Z,86.20
2019-01-20T04:36:26.495Z,85.75
2019-01-20T04:38:53.248Z,85.78
2019-01-20T04:41:20.121Z,86.15
2019-01-20T04:43:46.882Z,85.47
2019-01-20T04:46:13.624Z,86.12
2019-01-20T04:48:40.385Z,86.19
2019-01-20T04:51:07.148Z,85.95
2019-01-20T04:53:33.916Z,85.47
2019-01-20T04:56:00.644Z,85.55
2019-01-20T04:58:27.400Z,86.23
2019-01-20T05:00:54.136Z,85.18
2019-01-20T05:03:20.888Z,85.25
2019-01-20T05:05:47.672Z,85.91
2019-01-20T05:08:14.419Z,85.50
2019-01-20T05:10:41.148Z,85.92
2019-01-20T05:13:07.926Z,86.27
2019-01-20T05:15:34.650Z,84.84
2019-01-20T05:18:01.417Z,84.97
2019-01-20T05:20:28.149Z,84.02
2019-01-20T05:22:54.901Z,85.84
2019-01-20T05:25:21.644Z,85.62
2019-01-20T05:27:48.411Z,85.10
2019-01-20T05:30:17.087Z,86.27
2019-01-20T05:32:43.837Z,86.29
2019-01-20T05:35:10.613Z,85.45
2019-01-20T05:37:37.380Z,86.32
2019-01-20T05:40:05.050Z,86.75
2019-01-20T05:42:31.805Z,86.72
2019-01-20T05:44:58.541Z,86.93
2019-01-20T05:47:25.314Z,87.44
2019-01-20T05:49:52.168Z,87.04
2019-01-20T05:52:18.940Z,86.38
2019-01-20T05:54:45.671Z,87.12
2019-01-20T05:57:12.434Z,87.35
2019-01-20T05:59:39.157Z,86.82
2019-01-20T06:02:05.896Z,88.18
2019-01-20T06:04:32.647Z,86.93
2019-01-20T06:06:59.387Z,87.34
2019-01-20T06:09:26.153Z,87.73
2019-01-20T06:11:52.888Z,87.77
2019-01-20T06:14:19.637Z,87.15
2019-01-20T06:16:46.400Z,87.90
2019-01-20T06:19:13.173Z,87.52
2019-01-20T06:21:39.913Z,86.39
2019-01-20T06:24:06.688Z,87.65
2019-01-20T06:26:33.428Z,87.38
2019-01-20T06:29:00.208Z,86.91
2019-01-20T06:31:27.543Z,86.75
2019-01-20T06:33:54.304Z,87.56
2019-01-20T06:36:21.049Z,87.83
2019-01-20T06:38:47.808Z,88.04
2019-01-20T06:41:14.528Z,88.23
2019-01-20T06:43:41.281Z,87.50
2019-01-20T06:46:08.033Z,87.78
2019-01-20T06:48:34.768Z,87.22
2019-01-20T06:51:01.509Z,87.25
2019-01-20T06:53:28.272Z,87.41
2019-01-20T06:55:55.079Z,87.28
2019-01-20T06:58:22.020Z,86.43
2019-01-20T07:00:48.776Z,87.68
2019-01-20T07:03:15.644Z,87.07
2019-01-20T07:05:42.379Z,87.00
2019-01-20T07:08:09.145Z,87.96
2019-01-20T07:10:35.880Z,87.94
2019-01-20T07:13:09.226Z,86.70
2019-01-20T07:15:29.463Z,87.15
2019-01-20T07:17:56.209Z,87.54
2019-01-20T07:20:23.069Z,86.68
2019-01-20T07:22:49.897Z,87.02
2019-01-20T07:25:16.650Z,86.48
2019-01-20T07:27:43.401Z,87.77
2019-01-20T07:30:12.820Z,86.22
2019-01-20T07:32:39.624Z,86.20
2019-01-20T07:35:07.073Z,85.31
2019-01-20T07:37:33.820Z,86.04
2019-01-20T07:40:00.585Z,86.31
2019-01-20T07:42:27.322Z,85.20
2019-01-20T07:44:54.080Z,84.97
2019-01-20T07:47:20.808Z,85.41
2019-01-20T07:49:47.651Z,85.89
2019-01-20T07:52:14.471Z,85.76
2019-01-20T07:54:41.248Z,84.47
2019-01-20T07:57:08.009Z,85.34
2019-01-20T07:59:34.768Z,85.75
2019-01-20T08:02:01.526Z,85.92
2019-01-20T08:04:28.278Z,85.67
2019-01-20T08:06:55.016Z,85.51
2019-01-20T08:09:21.775Z,84.70
2019-01-20T08:11:48.544Z,85.63
2019-01-20T08:14:15.305Z,85.27
2019-01-20T08:16:42.061Z,85.79
2019-01-20T08:19:08.832Z,85.27
2019-01-20T08:21:35.652Z,85.59
2019-01-20T08:24:02.409Z,85.76
2019-01-20T08:26:29.146Z,85.74
2019-01-20T08:28:55.909Z,85.68
2019-01-20T08:31:22.655Z,85.62
2019-01-20T08:33:49.412Z,85.03
2019-01-20T08:36:16.148Z,85.73
2019-01-20T08:38:42.892Z,85.66
2019-01-20T08:41:09.666Z,87.44
2019-01-20T08:43:37.625Z,86.24
2019-01-20T08:46:17.888Z,87.53
2019-01-20T08:48:44.640Z,87.11
2019-01-20T08:51:12.742Z,87.70
2019-01-20T08:53:40.279Z,86.60
2019-01-20T08:56:07.116Z,86.20
2019-01-20T08:58:33.873Z,86.01
2019-01-20T09:01:00.653Z,86.21
2019-01-20T09:03:27.417Z,85.74
2019-01-20T09:05:54.164Z,86.16
2019-01-20T09:08:20.904Z,86.30
2019-01-20T09:10:47.648Z,85.86
2019-01-20T09:13:14.493Z,86.39
2019-01-20T09:15:41.272Z,85.19
2019-01-20T09:18:08.104Z,85.76
2019-01-20T09:20:34.882Z,83.85
2019-01-20T09:23:01.654Z,84.90
2019-01-20T09:25:28.416Z,85.99
2019-01-20T09:27:55.173Z,85.90
2019-01-20T09:30:22.040Z,85.40
2019-01-20T09:32:48.817Z,84.91
2019-01-20T09:35:15.580Z,86.09
2019-01-20T09:37:42.357Z,85.36
2019-01-20T09:40:12.145Z,84.90
2019-01-20T09:42:38.930Z,85.75
2019-01-20T09:45:08.707Z,84.88
2019-01-20T09:47:36.481Z,83.41
2019-01-20T09:50:04.245Z,81.66
2019-01-20T09:52:34.494Z,81.71
2019-01-20T09:55:04.034Z,81.98
2019-01-20T09:57:30.834Z,81.48
2019-01-20T09:59:57.853Z,81.48
2019-01-20T10:02:24.815Z,81.65
2019-01-20T10:04:51.714Z,81.49
2019-01-20T10:07:18.517Z,82.25
2019-01-20T10:09:45.377Z,81.39
2019-01-20T10:12:13.287Z,81.64
2019-01-20T10:14:40.198Z,82.32
2019-01-20T10:17:07.027Z,81.70
2019-01-20T10:19:33.824Z,81.37
2019-01-20T10:22:00.637Z,81.22
2019-01-20T10:24:27.433Z,81.02
2019-01-20T10:26:54.288Z,81.16
2019-01-20T10:29:24.917Z,80.81
2019-01-20T10:31:52.707Z,81.08
2019-01-20T10:34:19.501Z,80.29
2019-01-20T10:36:46.318Z,80.46
2019-01-20T10:39:13.090Z,80.34
2019-01-20T10:41:49.783Z,81.37
2019-01-20T10:44:16.618Z,80.13
2019-01-20T10:46:43.397Z,79.79
2019-01-20T10:49:10.192Z,79.43
2019-01-20T10:51:37.030Z,78.96
2019-01-20T10:54:03.874Z,80.56
2019-01-20T10:56:30.718Z,79.76
2019-01-20T10:58:57.513Z,79.42
2019-01-20T11:01:25.461Z,79.62
2019-01-20T11:03:52.241Z,80.69
2019-01-20T11:06:19.055Z,79.87
2019-01-20T11:08:46.965Z,80.74
2019-01-20T11:11:13.853Z,80.47
2019-01-20T11:13:40.701Z,80.14
2019-01-20T11:16:08.517Z,79.26
2019-01-20T11:18:36.305Z,80.49
2019-01-20T11:21:03.113Z,78.66
2019-01-20T11:23:29.877Z,79.25
2019-01-20T11:25:59.122Z,80.14
2019-01-20T11:28:25.207Z,77.63
2019-01-20T11:30:51.973Z,78.00
2019-01-20T11:33:19.890Z,77.96
2019-01-20T11:35:46.665Z,78.64
2019-01-20T11:38:13.474Z,79.74
2019-01-20T11:40:40.260Z,79.95
2019-01-20T11:43:08.207Z,79.71
2019-01-20T11:45:35.050Z,79.31
2019-01-20T11:48:01.842Z,80.79
2019-01-20T11:50:28.671Z,78.93
2019-01-20T11:52:55.463Z,79.94
2019-01-20T11:55:22.253Z,79.52
2019-01-20T11:57:49.020Z,80.35
2019-01-20T12:00:19.172Z,80.68
2019-01-20T12:02:48.010Z,81.50
2019-01-20T12:05:14.829Z,80.54
2019-01-20T12:07:41.705Z,81.61
2019-01-20T12:10:08.739Z,80.87
2019-01-20T12:12:35.477Z,81.57
2019-01-20T12:15:02.221Z,81.22
2019-01-20T12:17:29.114Z,80.96
2019-01-20T12:19:55.918Z,81.35
2019-01-20T12:22:22.709Z,80.58
2019-01-20T12:24:49.501Z,80.83
2019-01-20T12:27:16.298Z,80.42
2019-01-20T12:29:51.805Z,79.82
2019-01-20T12:32:14.457Z,79.41
2019-01-20T12:34:41.288Z,80.77
2019-01-20T12:37:08.045Z,80.41
2019-01-20T12:39:34.825Z,79.29
2019-01-20T12:42:01.597Z,80.53
2019-01-20T12:44:31.547Z,79.48
2019-01-20T12:46:55.170Z,79.50
2019-01-20T12:49:22.169Z,78.45
2019-01-20T12:51:49.110Z,78.24
2019-01-20T12:54:15.902Z,79.08
2019-01-20T12:56:42.672Z,78.58
2019-01-20T12:59:09.514Z,79.14
2019-01-20T13:01:36.318Z,78.95
2019-01-20T13:04:03.153Z,78.35
2019-01-20T13:06:29.929Z,78.15
2019-01-20T13:08:56.741Z,78.20
2019-01-20T13:11:23.523Z,78.64
2019-01-20T13:13:50.298Z,79.00
2019-01-20T13:16:17.085Z,79.23
2019-01-20T13:18:43.885Z,79.59
2019-01-20T13:21:14.324Z,78.77
2019-01-20T13:23:41.121Z,79.47
2019-01-20T13:26:07.898Z,79.16
2019-01-20T13:28:35.710Z,78.31
2019-01-20T13:31:02.455Z,79.02
2019-01-20T13:33:29.301Z,78.59
2019-01-20T13:35:56.053Z,78.15
2019-01-20T13:38:24.049Z,78.72
2019-01-20T13:41:04.552Z,78.71
2019-01-20T13:43:32.798Z,80.09
2019-01-20T13:45:59.569Z,77.62
2019-01-20T13:48:27.452Z,77.68
2019-01-20T13:50:54.225Z,77.32
2019-01-20T13:53:21.078Z,78.01
2019-01-20T13:55:47.748Z,77.89
2019-01-20T13:58:17.602Z,77.37
2019-01-20T14:00:44.379Z,77.38
2019-01-20T14:03:11.189Z,77.52
2019-01-20T14:05:37.954Z,78.42
2019-01-20T14:08:04.708Z,78.39
2019-01-20T14:10:31.555Z,78.76
2019-01-20T14:12:58.304Z,78.58
2019-01-20T14:15:25.083Z,79.08
2019-01-20T14:17:51.844Z,79.26
2019-01-20T14:20:19.736Z,78.28
2019-01-20T14:22:46.510Z,78.99
2019-01-20T14:25:15.136Z,78.95
2019-01-20T14:27:41.892Z,78.83
2019-01-20T14:30:12.246Z,78.58
2019-01-20T14:32:41.410Z,78.26
2019-01-20T14:35:08.437Z,77.50
2019-01-20T14:37:35.184Z,78.47
2019-01-20T14:40:01.969Z,78.65
2019-01-20T14:42:28.729Z,78.58
2019-01-20T14:45:00.993Z,78.41
2019-01-20T14:47:22.293Z,78.68
2019-01-20T14:49:49.081Z,78.81
2019-01-20T14:52:21.572Z,79.41
2019-01-20T14:54:48.578Z,79.98
2019-01-20T14:57:15.373Z,80.41
2019-01-20T14:59:42.158Z,78.63
2019-01-20T15:02:08.965Z,79.55
2019-01-20T15:04:35.765Z,79.68
2019-01-20T15:07:02.524Z,79.41
2019-01-20T15:09:29.306Z,79.00
2019-01-20T15:11:56.063Z,79.01
2019-01-20T15:14:33.353Z,78.89
2019-01-20T15:17:01.055Z,79.47
2019-01-20T15:19:26.965Z,78.28
2019-01-20T15:21:53.741Z,79.57
2019-01-20T15:24:20.521Z,78.17
2019-01-20T15:26:47.365Z,78.00
2019-01-20T15:29:14.154Z,79.62
2019-01-20T15:31:40.933Z,79.70
2019-01-20T15:34:07.753Z,78.78
2019-01-20T15:36:34.562Z,78.69
2019-01-20T15:39:01.317Z,79.78
2019-01-20T15:41:28.156Z,80.04
2019-01-20T15:43:54.889Z,79.73
2019-01-20T15:46:21.697Z,80.17
2019-01-20T15:48:48.473Z,80.49
2019-01-20T15:51:15.236Z,79.83
2019-01-20T15:53:42.001Z,78.97
2019-01-20T15:56:08.889Z,78.58
2019-01-20T15:58:35.641Z,79.73
2019-01-20T16:01:02.468Z,79.92
2019-01-20T16:03:29.237Z,78.53
2019-01-20T16:05:56.049Z,79.38
2019-01-20T16:08:22.858Z,80.00
2019-01-20T16:10:49.617Z,79.85
2019-01-20T16:13:16.409Z,80.36
2019-01-20T16:15:43.176Z,80.58
2019-01-20T16:18:14.196Z,79.39
2019-01-20T16:20:36.728Z,80.98
2019-01-20T16:23:05.573Z,80.87
2019-01-20T16:25:34.381Z,80.22
2019-01-20T16:28:01.172Z,80.84
2019-01-20T16:30:30.108Z,80.56
2019-01-20T16:32:57.662Z,80.96
2019-01-20T16:35:24.833Z,80.71
2019-01-20T16:37:51.621Z,80.28
2019-01-20T16:40:19.425Z,80.95
2019-01-20T16:42:46.287Z,81.04
2019-01-20T16:45:14.720Z,80.77
2019-01-20T16:47:41.485Z,81.06
2019-01-20T16:50:10.702Z,80.90
2019-01-20T16:52:37.464Z,79.78
2019-01-20T16:55:04.449Z,79.58
2019-01-20T16:57:31.243Z,80.38
2019-01-20T16:59:58.058Z,81.24
2019-01-20T17:02:25.044Z,80.08
2019-01-20T17:04:51.823Z,81.22
2019-01-20T17:07:18.737Z,80.57
2019-01-20T17:09:45.645Z,80.02
2019-01-20T17:12:12.413Z,81.82
2019-01-20T17:14:39.356Z,81.59
2019-01-20T17:17:06.238Z,81.49
2019-01-20T17:19:33.337Z,81.94
2019-01-20T17:22:00.136Z,81.75
2019-01-20T17:24:26.890Z,81.25
2019-01-20T17:26:53.952Z,81.67
2019-01-20T17:29:20.718Z,80.80
2019-01-20T17:31:47.493Z,81.03
2019-01-20T17:34:14.287Z,81.17
2019-01-20T17:36:41.029Z,81.94
2019-01-20T17:39:12.272Z,81.40
2019-01-20T17:41:34.748Z,82.31
2019-01-20T17:44:01.533Z,82.30
2019-01-20T17:46:28.313Z,81.54
2019-01-20T17:48:55.073Z,82.88
2019-01-20T17:51:21.880Z,82.03
2019-01-20T17:53:48.629Z,81.54
2019-01-20T17:56:15.408Z,82.73
2019-01-20T17:58:42.217Z,81.91
2019-01-20T18:01:08.997Z,82.00
2019-01-20T18:03:35.761Z,82.43
2019-01-20T18:06:02.537Z,82.81
2019-01-20T18:08:29.297Z,82.05
2019-01-20T18:10:56.064Z,83.10
2019-01-20T18:13:22.817Z,82.53
2019-01-20T18:15:54.817Z,82.05
2019-01-20T18:18:17.400Z,82.85
2019-01-20T18:20:44.205Z,83.10
2019-01-20T18:23:10.980Z,82.15
2019-01-20T18:25:37.738Z,82.02
2019-01-20T18:28:04.584Z,82.47
2019-01-20T18:30:31.344Z,81.79
2019-01-20T18:32:58.120Z,82.31
2019-01-20T18:35:25.420Z,83.22
2019-01-20T18:37:52.486Z,82.94
2019-01-20T18:40:19.478Z,82.13
2019-01-20T18:42:46.238Z,82.21
2019-01-20T18:45:15.133Z,82.61
2019-01-20T18:47:41.914Z,83.53
2019-01-20T18:50:10.510Z,83.41
2019-01-20T18:52:37.361Z,82.68
2019-01-20T18:55:04.865Z,83.52
2019-01-20T18:57:31.854Z,84.24
2019-01-20T18:59:58.637Z,83.83
2019-01-20T19:02:25.564Z,83.21
2019-01-20T19:04:52.497Z,83.30
2019-01-20T19:07:19.446Z,84.24
2019-01-20T19:09:46.205Z,82.93
2019-01-20T19:12:12.968Z,83.81
2019-01-20T19:14:39.737Z,83.92
2019-01-20T19:17:06.613Z,83.85
2019-01-20T19:19:33.497Z,83.85
2019-01-20T19:22:00.321Z,84.03
2019-01-20T19:24:27.078Z,83.55
2019-01-20T19:26:53.967Z,84.80
2019-01-20T19:29:20.884Z,83.58
2019-01-20T19:31:48.060Z,83.55
2019-01-20T19:34:15.109Z,84.09
2019-01-20T19:36:42.270Z,84.59
2019-01-20T19:39:09.073Z,84.39
2019-01-20T19:41:36.065Z,85.14
2019-01-20T19:44:02.817Z,84.13
2019-01-20T19:46:29.992Z,84.27
2019-01-20T19:48:56.825Z,84.44
2019-01-20T19:51:23.863Z,84.23
2019-01-20T19:53:50.615Z,83.89
2019-01-20T19:56:17.584Z,84.63
2019-01-20T19:58:44.373Z,83.32
2019-01-20T20:01:11.157Z,82.93
2019-01-20T20:03:37.978Z,83.32
2019-01-20T20:06:04.737Z,83.94
2019-01-20T20:08:31.521Z,83.37
2019-01-20T20:10:58.272Z,83.22
2019-01-20T20:13:25.073Z,83.24
2019-01-20T20:15:51.837Z,82.87
2019-01-20T20:18:18.649Z,82.96
2019-01-20T20:20:45.426Z,82.64
2019-01-20T20:23:13.097Z,81.78
2019-01-20T20:25:39.974Z,81.58
2019-01-20T20:28:06.762Z,81.97
2019-01-20T20:30:35.404Z,81.23
2019-01-20T20:33:02.186Z,81.80
2019-01-20T20:35:28.948Z,82.01
2019-01-20T20:37:55.729Z,82.35
2019-01-20T20:40:22.501Z,81.54
2019-01-20T20:42:49.284Z,81.82
2019-01-20T20:45:17.839Z,81.85
2019-01-20T20:47:44.644Z,82.10
2019-01-20T20:50:12.698Z,82.26
2019-01-20T20:52:45.779Z,81.76
2019-01-20T20:55:06.685Z,81.59
2019-01-20T20:57:33.468Z,82.09
2019-01-20T21:00:00.234Z,83.32
2019-01-20T21:02:27.935Z,83.39
2019-01-20T21:04:54.685Z,82.13
2019-01-20T21:07:21.472Z,81.74
2019-01-20T21:09:48.241Z,82.51
2019-01-20T21:12:15.021Z,82.30
2019-01-20T21:14:41.775Z,81.94
2019-01-20T21:17:08.572Z,82.74
2019-01-20T21:19:35.324Z,82.73
2019-01-20T21:22:02.101Z,82.67
2019-01-20T21:24:28.867Z,84.09
2019-01-20T21:26:55.633Z,84.01
2019-01-20T21:29:22.408Z,83.34
2019-01-20T21:31:49.185Z,83.65
2019-01-20T21:34:15.955Z,83.84
2019-01-20T21:36:42.713Z,83.15
2019-01-20T21:39:09.504Z,83.07
2019-01-20T21:41:36.254Z,84.09
2019-01-20T21:44:03.066Z,84.40
2019-01-20T21:46:29.826Z,84.24
2019-01-20T21:48:56.631Z,83.65
2019-01-20T21:51:23.397Z,83.57
2019-01-20T21:53:50.186Z,83.51
2019-01-20T21:56:16.959Z,83.58
2019-01-20T21:58:43.748Z,84.02
2019-01-20T22:01:10.521Z,84.15
2019-01-20T22:03:37.310Z,84.50
2019-01-20T22:06:04.128Z,84.07
2019-01-20T22:08:30.996Z,84.02
2019-01-20T22:10:57.884Z,84.04
2019-01-20T22:13:24.656Z,85.09
2019-01-20T22:15:51.450Z,85.85
2019-01-20T22:18:18.263Z,87.03
2019-01-20T22:20:45.081Z,88.04
2019-01-20T22:23:11.878Z,88.65
2019-01-20T22:25:38.633Z,88.48
2019-01-20T22:28:05.424Z,88.98
2019-01-20T22:30:32.222Z,88.86
2019-01-20T22:32:59.008Z,89.12
2019-01-20T22:35:25.795Z,89.64
2019-01-20T22:37:52.581Z,89.57
2019-01-20T22:40:19.356Z,89.45
2019-01-20T22:42:46.181Z,88.65
2019-01-20T22:45:16.150Z,89.48
2019-01-20T22:47:42.935Z,89.94
2019-01-20T22:50:10.520Z,89.60
2019-01-20T22:52:37.407Z,90.26
2019-01-20T22:55:04.762Z,89.82
2019-01-20T22:57:31.542Z,89.48
2019-01-20T22:59:58.333Z,89.34
2019-01-20T23:02:25.109Z,89.03
2019-01-20T23:04:51.945Z,89.92
2019-01-20T23:07:18.808Z,90.22
2019-01-20T23:09:45.514Z,90.59
2019-01-20T23:12:12.374Z,91.00
2019-01-20T23:14:39.200Z,91.03
2019-01-20T23:17:07.894Z,90.41
2019-01-20T23:19:32.789Z,90.83
2019-01-20T23:21:59.589Z,91.25
2019-01-20T23:24:26.362Z,90.30
2019-01-20T23:26:53.132Z,91.15
2019-01-20T23:29:19.937Z,90.97
2019-01-20T23:31:46.701Z,90.66
2019-01-20T23:34:13.509Z,91.61
2019-01-20T23:36:40.275Z,91.61
2019-01-20T23:39:07.197Z,91.15
2019-01-20T23:41:33.973Z,91.06
2019-01-20T23:44:00.845Z,90.22
2019-01-20T23:46:27.581Z,90.42
2019-01-20T23:48:54.378Z,90.52
2019-01-20T23:51:21.138Z,90.97
2019-01-20T23:53:47.928Z,90.95
2019-01-20T23:56:14.706Z,91.91
2019-01-20T23:58:41.500Z,91.26
